sensor_id;sensor_type;location;lat;lon;timestamp;P1;durP1;ratioP1;P2;durP2;ratioP2
9042;SDS011;4556;49.150;8.808;2022-11-15T00:02:24;6.40;;;3.67;;
9042;SDS011;4556;49.150;8.808;2022-11-15T00:04:51;4.33;;;3.40;;
9042;SDS011;4556;49.150;8.808;2022-11-15T00:07:19;7.00;;;3.70;;
9042;SDS011;4556;49.150;8.808;2022-11-15T00:09:47;4.63;;;3.40;;
9042;SDS011;4556;49.150;8.808;2022-11-15T00:12:13;5.27;;;3.80;;
9042;SDS011;4556;49.150;8.808;2022-11-15T00:14:40;5.77;;;3.80;;
9042;SDS011;4556;49.150;8.808;2022-11-15T00:17:07;6.30;;;4.03;;
9042;SDS011;4556;49.150;8.808;2022-11-15T00:19:34;4.77;;;3.30;;
9042;SDS011;4556;49.150;8.808;2022-11-15T00:22:01;6.40;;;3.30;;
9042;SDS011;4556;49.150;8.808;2022-11-15T00:24:30;4.93;;;4.03;;
9042;SDS011;4556;49.150;8.808;2022-11-15T00:26:57;7.60;;;3.63;;
9042;SDS011;4556;49.150;8.808;2022-11-15T00:29:24;4.17;;;3.43;;
9042;SDS011;4556;49.150;8.808;2022-11-15T00:31:51;4.40;;;3.23;;
9042;SDS011;4556;49.150;8.808;2022-11-15T00:34:18;6.03;;;3.43;;
9042;SDS011;4556;49.150;8.808;2022-11-15T00:36:45;6.70;;;3.50;;
9042;SDS011;4556;49.150;8.808;2022-11-15T00:39:12;5.43;;;3.40;;
9042;SDS011;4556;49.150;8.808;2022-11-15T00:41:40;4.97;;;3.50;;
9042;SDS011;4556;49.150;8.808;2022-11-15T00:44:07;4.23;;;3.60;;
9042;SDS011;4556;49.150;8.808;2022-11-15T00:46:34;6.40;;;4.20;;
9042;SDS011;4556;49.150;8.808;2022-11-15T00:49:01;7.57;;;3.67;;
9042;SDS011;4556;49.150;8.808;2022-11-15T00:51:28;5.47;;;3.80;;
9042;SDS011;4556;49.150;8.808;2022-11-15T00:53:55;5.40;;;3.20;;
9042;SDS011;4556;49.150;8.808;2022-11-15T00:56:22;4.43;;;3.20;;
9042;SDS011;4556;49.150;8.808;2022-11-15T00:58:51;6.17;;;3.73;;
9042;SDS011;4556;49.150;8.808;2022-11-15T01:01:18;9.47;;;3.70;;
9042;SDS011;4556;49.150;8.808;2022-11-15T01:03:46;6.07;;;3.73;;
9042;SDS011;4556;49.150;8.808;2022-11-15T01:06:12;5.17;;;3.30;;
9042;SDS011;4556;49.150;8.808;2022-11-15T01:08:41;4.00;;;3.53;;
9042;SDS011;4556;49.150;8.808;2022-11-15T01:11:09;4.50;;;3.60;;
9042;SDS011;4556;49.150;8.808;2022-11-15T01:13:37;4.27;;;3.30;;
9042;SDS011;4556;49.150;8.808;2022-11-15T01:16:08;4.73;;;3.40;;
9042;SDS011;4556;49.150;8.808;2022-11-15T01:18:37;4.07;;;3.50;;
9042;SDS011;4556;49.150;8.808;2022-11-15T01:21:04;3.90;;;3.33;;
9042;SDS011;4556;49.150;8.808;2022-11-15T01:23:32;4.27;;;3.27;;
9042;SDS011;4556;49.150;8.808;2022-11-15T01:26:00;4.97;;;3.30;;
9042;SDS011;4556;49.150;8.808;2022-11-15T01:28:29;3.80;;;2.93;;
9042;SDS011;4556;49.150;8.808;2022-11-15T01:30:57;5.13;;;3.13;;
9042;SDS011;4556;49.150;8.808;2022-11-15T01:33:26;5.47;;;3.60;;
9042;SDS011;4556;49.150;8.808;2022-11-15T01:35:53;4.70;;;3.40;;
9042;SDS011;4556;49.150;8.808;2022-11-15T01:38:21;4.77;;;3.40;;
9042;SDS011;4556;49.150;8.808;2022-11-15T01:40:48;5.07;;;3.83;;
9042;SDS011;4556;49.150;8.808;2022-11-15T01:43:20;4.93;;;3.33;;
9042;SDS011;4556;49.150;8.808;2022-11-15T01:45:49;4.07;;;3.07;;
9042;SDS011;4556;49.150;8.808;2022-11-15T01:48:19;5.87;;;3.40;;
9042;SDS011;4556;49.150;8.808;2022-11-15T01:50:48;3.87;;;3.10;;
9042;SDS011;4556;49.150;8.808;2022-11-15T01:53:16;6.13;;;3.40;;
9042;SDS011;4556;49.150;8.808;2022-11-15T01:55:45;3.90;;;3.03;;
9042;SDS011;4556;49.150;8.808;2022-11-15T01:58:12;5.27;;;3.20;;
9042;SDS011;4556;49.150;8.808;2022-11-15T02:00:39;4.37;;;3.00;;
9042;SDS011;4556;49.150;8.808;2022-11-15T02:03:06;4.40;;;3.27;;
9042;SDS011;4556;49.150;8.808;2022-11-15T02:05:33;5.33;;;3.30;;
9042;SDS011;4556;49.150;8.808;2022-11-15T02:08:04;3.93;;;3.13;;
9042;SDS011;4556;49.150;8.808;2022-11-15T02:10:32;4.87;;;3.20;;
9042;SDS011;4556;49.150;8.808;2022-11-15T02:12:59;4.17;;;3.10;;
9042;SDS011;4556;49.150;8.808;2022-11-15T02:15:29;5.37;;;3.07;;
9042;SDS011;4556;49.150;8.808;2022-11-15T02:18:08;4.83;;;3.70;;
9042;SDS011;4556;49.150;8.808;2022-11-15T02:23:36;5.77;;;3.17;;
9042;SDS011;4556;49.150;8.808;2022-11-15T02:26:37;4.87;;;3.10;;
9042;SDS011;4556;49.150;8.808;2022-11-15T02:29:25;4.87;;;3.50;;
9042;SDS011;4556;49.150;8.808;2022-11-15T02:32:06;3.47;;;2.93;;
9042;SDS011;4556;49.150;8.808;2022-11-15T02:34:41;6.10;;;3.93;;
9042;SDS011;4556;49.150;8.808;2022-11-15T02:37:16;3.63;;;3.00;;
9042;SDS011;4556;49.150;8.808;2022-11-15T02:39:54;4.20;;;2.97;;
9042;SDS011;4556;49.150;8.808;2022-11-15T02:42:28;4.47;;;3.23;;
9042;SDS011;4556;49.150;8.808;2022-11-15T02:45:17;5.07;;;3.40;;
9042;SDS011;4556;49.150;8.808;2022-11-15T02:47:51;5.97;;;4.17;;
9042;SDS011;4556;49.150;8.808;2022-11-15T02:50:24;6.57;;;4.20;;
9042;SDS011;4556;49.150;8.808;2022-11-15T02:52:53;4.13;;;3.10;;
9042;SDS011;4556;49.150;8.808;2022-11-15T02:55:25;4.43;;;3.60;;
9042;SDS011;4556;49.150;8.808;2022-11-15T02:57:56;5.57;;;3.47;;
9042;SDS011;4556;49.150;8.808;2022-11-15T03:00:45;6.73;;;3.80;;
9042;SDS011;4556;49.150;8.808;2022-11-15T03:03:24;4.37;;;3.57;;
9042;SDS011;4556;49.150;8.808;2022-11-15T03:06:09;5.40;;;3.97;;
9042;SDS011;4556;49.150;8.808;2022-11-15T03:08:48;6.53;;;3.97;;
9042;SDS011;4556;49.150;8.808;2022-11-15T03:11:21;6.10;;;3.97;;
9042;SDS011;4556;49.150;8.808;2022-11-15T03:13:52;5.83;;;3.53;;
9042;SDS011;4556;49.150;8.808;2022-11-15T03:16:24;4.53;;;3.60;;
9042;SDS011;4556;49.150;8.808;2022-11-15T03:18:58;3.83;;;3.07;;
9042;SDS011;4556;49.150;8.808;2022-11-15T03:21:29;5.60;;;3.60;;
9042;SDS011;4556;49.150;8.808;2022-11-15T03:23:57;3.57;;;3.17;;
9042;SDS011;4556;49.150;8.808;2022-11-15T03:26:29;5.63;;;3.70;;
9042;SDS011;4556;49.150;8.808;2022-11-15T03:28:57;5.33;;;3.40;;
9042;SDS011;4556;49.150;8.808;2022-11-15T03:31:28;4.57;;;3.40;;
9042;SDS011;4556;49.150;8.808;2022-11-15T03:34:15;4.27;;;3.87;;
9042;SDS011;4556;49.150;8.808;2022-11-15T03:36:48;4.97;;;3.60;;
9042;SDS011;4556;49.150;8.808;2022-11-15T03:39:17;3.90;;;3.40;;
9042;SDS011;4556;49.150;8.808;2022-11-15T03:41:47;4.43;;;3.30;;
9042;SDS011;4556;49.150;8.808;2022-11-15T03:44:19;5.47;;;3.40;;
9042;SDS011;4556;49.150;8.808;2022-11-15T03:46:54;3.70;;;3.20;;
9042;SDS011;4556;49.150;8.808;2022-11-15T03:49:27;4.63;;;2.90;;
9042;SDS011;4556;49.150;8.808;2022-11-15T03:51:57;5.97;;;3.57;;
9042;SDS011;4556;49.150;8.808;2022-11-15T03:54:26;3.60;;;2.90;;
9042;SDS011;4556;49.150;8.808;2022-11-15T03:56:53;5.67;;;3.57;;
9042;SDS011;4556;49.150;8.808;2022-11-15T03:59:21;4.47;;;3.43;;
9042;SDS011;4556;49.150;8.808;2022-11-15T04:01:48;6.80;;;3.90;;
9042;SDS011;4556;49.150;8.808;2022-11-15T04:04:15;6.57;;;3.97;;
9042;SDS011;4556;49.150;8.808;2022-11-15T04:06:44;6.57;;;3.87;;
9042;SDS011;4556;49.150;8.808;2022-11-15T04:09:11;6.43;;;3.70;;
9042;SDS011;4556;49.150;8.808;2022-11-15T04:11:38;5.27;;;3.50;;
9042;SDS011;4556;49.150;8.808;2022-11-15T04:14:05;4.60;;;3.77;;
9042;SDS011;4556;49.150;8.808;2022-11-15T04:16:32;6.23;;;3.70;;
9042;SDS011;4556;49.150;8.808;2022-11-15T04:18:59;4.53;;;3.33;;
9042;SDS011;4556;49.150;8.808;2022-11-15T04:21:45;3.57;;;3.00;;
9042;SDS011;4556;49.150;8.808;2022-11-15T04:24:29;4.90;;;3.00;;
9042;SDS011;4556;49.150;8.808;2022-11-15T04:26:56;5.90;;;3.30;;
9042;SDS011;4556;49.150;8.808;2022-11-15T04:29:26;4.80;;;3.40;;
9042;SDS011;4556;49.150;8.808;2022-11-15T04:32:02;3.80;;;3.00;;
9042;SDS011;4556;49.150;8.808;2022-11-15T04:34:30;3.90;;;3.00;;
9042;SDS011;4556;49.150;8.808;2022-11-15T04:36:59;4.33;;;3.30;;
9042;SDS011;4556;49.150;8.808;2022-11-15T04:39:37;3.90;;;2.87;;
9042;SDS011;4556;49.150;8.808;2022-11-15T04:42:04;3.90;;;2.70;;
9042;SDS011;4556;49.150;8.808;2022-11-15T04:44:31;4.23;;;3.10;;
9042;SDS011;4556;49.150;8.808;2022-11-15T04:46:58;3.17;;;2.80;;
9042;SDS011;4556;49.150;8.808;2022-11-15T04:49:25;3.67;;;2.83;;
9042;SDS011;4556;49.150;8.808;2022-11-15T04:51:52;3.30;;;2.70;;
9042;SDS011;4556;49.150;8.808;2022-11-15T04:54:21;4.80;;;3.03;;
9042;SDS011;4556;49.150;8.808;2022-11-15T04:56:48;4.93;;;3.20;;
9042;SDS011;4556;49.150;8.808;2022-11-15T04:59:15;4.67;;;3.13;;
9042;SDS011;4556;49.150;8.808;2022-11-15T05:01:42;3.87;;;2.83;;
9042;SDS011;4556;49.150;8.808;2022-11-15T05:04:09;4.83;;;3.10;;
9042;SDS011;4556;49.150;8.808;2022-11-15T05:06:44;3.60;;;2.80;;
9042;SDS011;4556;49.150;8.808;2022-11-15T05:09:12;5.67;;;3.00;;
9042;SDS011;4556;49.150;8.808;2022-11-15T05:11:40;3.03;;;2.70;;
9042;SDS011;4556;49.150;8.808;2022-11-15T05:14:08;3.80;;;3.03;;
9042;SDS011;4556;49.150;8.808;2022-11-15T05:16:35;3.00;;;2.60;;
9042;SDS011;4556;49.150;8.808;2022-11-15T05:19:03;4.77;;;2.70;;
9042;SDS011;4556;49.150;8.808;2022-11-15T05:21:30;5.03;;;2.73;;
9042;SDS011;4556;49.150;8.808;2022-11-15T05:23:57;4.33;;;3.00;;
9042;SDS011;4556;49.150;8.808;2022-11-15T05:26:24;5.90;;;3.07;;
9042;SDS011;4556;49.150;8.808;2022-11-15T05:28:53;3.53;;;2.37;;
9042;SDS011;4556;49.150;8.808;2022-11-15T05:31:20;3.67;;;2.57;;
9042;SDS011;4556;49.150;8.808;2022-11-15T05:33:48;4.27;;;2.80;;
9042;SDS011;4556;49.150;8.808;2022-11-15T05:36:17;4.20;;;2.90;;
9042;SDS011;4556;49.150;8.808;2022-11-15T05:38:49;3.93;;;2.53;;
9042;SDS011;4556;49.150;8.808;2022-11-15T05:41:16;3.07;;;2.60;;
9042;SDS011;4556;49.150;8.808;2022-11-15T05:43:47;3.53;;;2.57;;
9042;SDS011;4556;49.150;8.808;2022-11-15T05:46:18;3.53;;;2.20;;
9042;SDS011;4556;49.150;8.808;2022-11-15T05:48:45;3.33;;;2.60;;
9042;SDS011;4556;49.150;8.808;2022-11-15T05:51:14;2.97;;;2.40;;
9042;SDS011;4556;49.150;8.808;2022-11-15T05:53:42;2.97;;;2.30;;
9042;SDS011;4556;49.150;8.808;2022-11-15T05:56:10;4.17;;;2.50;;
9042;SDS011;4556;49.150;8.808;2022-11-15T05:58:38;2.63;;;2.30;;
9042;SDS011;4556;49.150;8.808;2022-11-15T06:01:05;2.60;;;2.20;;
9042;SDS011;4556;49.150;8.808;2022-11-15T06:03:33;3.60;;;2.47;;
9042;SDS011;4556;49.150;8.808;2022-11-15T06:06:00;6.73;;;3.07;;
9042;SDS011;4556;49.150;8.808;2022-11-15T06:08:27;3.13;;;2.60;;
9042;SDS011;4556;49.150;8.808;2022-11-15T06:10:54;3.67;;;2.30;;
9042;SDS011;4556;49.150;8.808;2022-11-15T06:13:21;6.23;;;2.90;;
9042;SDS011;4556;49.150;8.808;2022-11-15T06:15:48;2.87;;;2.40;;
9042;SDS011;4556;49.150;8.808;2022-11-15T06:18:15;3.00;;;2.67;;
9042;SDS011;4556;49.150;8.808;2022-11-15T06:20:43;2.97;;;2.40;;
9042;SDS011;4556;49.150;8.808;2022-11-15T06:23:10;2.90;;;2.20;;
9042;SDS011;4556;49.150;8.808;2022-11-15T06:25:38;3.17;;;2.63;;
9042;SDS011;4556;49.150;8.808;2022-11-15T06:28:05;4.97;;;2.40;;
9042;SDS011;4556;49.150;8.808;2022-11-15T06:30:32;4.63;;;2.60;;
9042;SDS011;4556;49.150;8.808;2022-11-15T06:32:59;4.70;;;2.57;;
9042;SDS011;4556;49.150;8.808;2022-11-15T06:35:27;4.77;;;2.97;;
9042;SDS011;4556;49.150;8.808;2022-11-15T06:37:57;3.87;;;2.30;;
9042;SDS011;4556;49.150;8.808;2022-11-15T06:40:28;4.03;;;2.40;;
9042;SDS011;4556;49.150;8.808;2022-11-15T06:42:57;3.57;;;2.40;;
9042;SDS011;4556;49.150;8.808;2022-11-15T06:45:24;3.10;;;2.60;;
9042;SDS011;4556;49.150;8.808;2022-11-15T06:47:51;4.17;;;2.90;;
9042;SDS011;4556;49.150;8.808;2022-11-15T06:50:18;4.97;;;3.50;;
9042;SDS011;4556;49.150;8.808;2022-11-15T06:52:44;4.63;;;3.37;;
9042;SDS011;4556;49.150;8.808;2022-11-15T06:55:13;2.87;;;2.37;;
9042;SDS011;4556;49.150;8.808;2022-11-15T06:57:46;3.93;;;2.80;;
9042;SDS011;4556;49.150;8.808;2022-11-15T07:00:14;4.20;;;3.00;;
9042;SDS011;4556;49.150;8.808;2022-11-15T07:02:42;4.67;;;3.40;;
9042;SDS011;4556;49.150;8.808;2022-11-15T07:05:09;3.93;;;3.20;;
9042;SDS011;4556;49.150;8.808;2022-11-15T07:07:36;9.23;;;2.63;;
9042;SDS011;4556;49.150;8.808;2022-11-15T07:10:04;4.00;;;2.57;;
9042;SDS011;4556;49.150;8.808;2022-11-15T07:12:33;4.53;;;2.80;;
9042;SDS011;4556;49.150;8.808;2022-11-15T07:15:00;3.17;;;2.60;;
9042;SDS011;4556;49.150;8.808;2022-11-15T07:17:27;3.43;;;2.63;;
9042;SDS011;4556;49.150;8.808;2022-11-15T07:19:54;3.97;;;2.70;;
9042;SDS011;4556;49.150;8.808;2022-11-15T07:22:22;3.97;;;2.73;;
9042;SDS011;4556;49.150;8.808;2022-11-15T07:24:48;5.33;;;3.47;;
9042;SDS011;4556;49.150;8.808;2022-11-15T07:27:15;4.77;;;3.20;;
9042;SDS011;4556;49.150;8.808;2022-11-15T07:29:44;4.63;;;3.10;;
9042;SDS011;4556;49.150;8.808;2022-11-15T07:32:10;5.57;;;3.20;;
9042;SDS011;4556;49.150;8.808;2022-11-15T07:34:37;5.63;;;3.17;;
9042;SDS011;4556;49.150;8.808;2022-11-15T07:37:04;5.77;;;3.00;;
9042;SDS011;4556;49.150;8.808;2022-11-15T07:39:31;4.43;;;3.30;;
9042;SDS011;4556;49.150;8.808;2022-11-15T07:41:58;3.50;;;2.90;;
9042;SDS011;4556;49.150;8.808;2022-11-15T07:44:45;4.57;;;3.10;;
9042;SDS011;4556;49.150;8.808;2022-11-15T07:47:12;3.70;;;3.13;;
9042;SDS011;4556;49.150;8.808;2022-11-15T07:49:39;4.27;;;2.90;;
9042;SDS011;4556;49.150;8.808;2022-11-15T07:52:06;4.53;;;2.80;;
9042;SDS011;4556;49.150;8.808;2022-11-15T07:54:33;5.27;;;3.10;;
9042;SDS011;4556;49.150;8.808;2022-11-15T07:57:00;3.60;;;2.83;;
9042;SDS011;4556;49.150;8.808;2022-11-15T07:59:27;5.27;;;3.30;;
9042;SDS011;4556;49.150;8.808;2022-11-15T08:01:55;4.80;;;3.40;;
9042;SDS011;4556;49.150;8.808;2022-11-15T08:04:22;3.30;;;3.00;;
9042;SDS011;4556;49.150;8.808;2022-11-15T08:06:49;4.60;;;3.40;;
9042;SDS011;4556;49.150;8.808;2022-11-15T08:09:16;3.87;;;3.40;;
9042;SDS011;4556;49.150;8.808;2022-11-15T08:11:43;4.63;;;3.40;;
9042;SDS011;4556;49.150;8.808;2022-11-15T08:14:10;4.73;;;2.90;;
9042;SDS011;4556;49.150;8.808;2022-11-15T08:16:36;5.33;;;2.90;;
9042;SDS011;4556;49.150;8.808;2022-11-15T08:19:05;6.03;;;3.37;;
9042;SDS011;4556;49.150;8.808;2022-11-15T08:21:32;5.43;;;3.10;;
9042;SDS011;4556;49.150;8.808;2022-11-15T08:24:00;4.73;;;3.03;;
9042;SDS011;4556;49.150;8.808;2022-11-15T08:26:27;5.53;;;3.60;;
9042;SDS011;4556;49.150;8.808;2022-11-15T08:28:55;5.03;;;2.87;;
9042;SDS011;4556;49.150;8.808;2022-11-15T08:31:21;6.67;;;2.90;;
9042;SDS011;4556;49.150;8.808;2022-11-15T08:33:48;5.33;;;3.30;;
9042;SDS011;4556;49.150;8.808;2022-11-15T08:36:17;4.97;;;3.70;;
9042;SDS011;4556;49.150;8.808;2022-11-15T08:38:45;4.90;;;3.30;;
9042;SDS011;4556;49.150;8.808;2022-11-15T08:41:13;4.97;;;3.03;;
9042;SDS011;4556;49.150;8.808;2022-11-15T08:43:45;5.03;;;3.80;;
9042;SDS011;4556;49.150;8.808;2022-11-15T08:46:12;5.93;;;3.73;;
9042;SDS011;4556;49.150;8.808;2022-11-15T08:48:40;4.77;;;3.30;;
9042;SDS011;4556;49.150;8.808;2022-11-15T08:51:07;5.30;;;3.40;;
9042;SDS011;4556;49.150;8.808;2022-11-15T08:53:35;5.47;;;3.53;;
9042;SDS011;4556;49.150;8.808;2022-11-15T08:56:02;5.33;;;3.77;;
9042;SDS011;4556;49.150;8.808;2022-11-15T08:58:33;5.27;;;3.70;;
9042;SDS011;4556;49.150;8.808;2022-11-15T09:01:00;8.93;;;4.33;;
9042;SDS011;4556;49.150;8.808;2022-11-15T09:03:27;10.27;;;4.60;;
9042;SDS011;4556;49.150;8.808;2022-11-15T09:05:54;8.90;;;5.73;;
9042;SDS011;4556;49.150;8.808;2022-11-15T09:08:22;7.57;;;5.03;;
9042;SDS011;4556;49.150;8.808;2022-11-15T09:10:51;6.67;;;3.70;;
9042;SDS011;4556;49.150;8.808;2022-11-15T09:13:18;5.17;;;3.13;;
9042;SDS011;4556;49.150;8.808;2022-11-15T09:15:45;11.60;;;3.47;;
9042;SDS011;4556;49.150;8.808;2022-11-15T09:18:12;6.60;;;3.00;;
9042;SDS011;4556;49.150;8.808;2022-11-15T09:20:39;4.97;;;2.77;;
9042;SDS011;4556;49.150;8.808;2022-11-15T09:23:06;4.13;;;2.70;;
9042;SDS011;4556;49.150;8.808;2022-11-15T09:25:33;7.07;;;2.90;;
9042;SDS011;4556;49.150;8.808;2022-11-15T09:28:03;6.73;;;3.27;;
9042;SDS011;4556;49.150;8.808;2022-11-15T09:30:32;7.10;;;3.07;;
9042;SDS011;4556;49.150;8.808;2022-11-15T09:33:02;5.43;;;3.00;;
9042;SDS011;4556;49.150;8.808;2022-11-15T09:35:32;3.53;;;2.60;;
9042;SDS011;4556;49.150;8.808;2022-11-15T09:37:59;5.77;;;2.43;;
9042;SDS011;4556;49.150;8.808;2022-11-15T09:40:27;4.43;;;2.70;;
9042;SDS011;4556;49.150;8.808;2022-11-15T09:43:01;2.93;;;2.30;;
9042;SDS011;4556;49.150;8.808;2022-11-15T09:45:47;4.27;;;2.80;;
9042;SDS011;4556;49.150;8.808;2022-11-15T09:48:27;7.00;;;3.50;;
9042;SDS011;4556;49.150;8.808;2022-11-15T09:51:20;4.13;;;2.77;;
9042;SDS011;4556;49.150;8.808;2022-11-15T09:53:59;9.20;;;5.30;;
9042;SDS011;4556;49.150;8.808;2022-11-15T09:56:31;6.73;;;5.07;;
9042;SDS011;4556;49.150;8.808;2022-11-15T09:59:05;6.90;;;5.30;;
9042;SDS011;4556;49.150;8.808;2022-11-15T10:01:43;6.37;;;4.10;;
9042;SDS011;4556;49.150;8.808;2022-11-15T10:04:15;8.90;;;5.10;;
9042;SDS011;4556;49.150;8.808;2022-11-15T10:06:44;6.70;;;4.50;;
9042;SDS011;4556;49.150;8.808;2022-11-15T10:09:21;6.80;;;3.70;;
9042;SDS011;4556;49.150;8.808;2022-11-15T10:11:54;7.60;;;3.60;;
9042;SDS011;4556;49.150;8.808;2022-11-15T10:14:24;5.07;;;3.10;;
9042;SDS011;4556;49.150;8.808;2022-11-15T10:20:07;5.33;;;4.50;;
9042;SDS011;4556;49.150;8.808;2022-11-15T10:22:39;5.80;;;4.57;;
9042;SDS011;4556;49.150;8.808;2022-11-15T10:25:13;6.80;;;5.80;;
9042;SDS011;4556;49.150;8.808;2022-11-15T10:27:45;7.93;;;4.87;;
9042;SDS011;4556;49.150;8.808;2022-11-15T10:30:19;7.43;;;2.93;;
9042;SDS011;4556;49.150;8.808;2022-11-15T10:32:47;5.80;;;3.33;;
9042;SDS011;4556;49.150;8.808;2022-11-15T10:35:16;5.30;;;3.00;;
9042;SDS011;4556;49.150;8.808;2022-11-15T10:37:44;3.37;;;2.60;;
9042;SDS011;4556;49.150;8.808;2022-11-15T10:40:15;5.60;;;2.50;;
9042;SDS011;4556;49.150;8.808;2022-11-15T10:42:45;5.00;;;2.93;;
9042;SDS011;4556;49.150;8.808;2022-11-15T10:45:24;6.03;;;2.40;;
9042;SDS011;4556;49.150;8.808;2022-11-15T10:47:53;7.13;;;4.27;;
9042;SDS011;4556;49.150;8.808;2022-11-15T10:50:29;4.07;;;3.07;;
9042;SDS011;4556;49.150;8.808;2022-11-15T10:52:57;4.67;;;3.00;;
9042;SDS011;4556;49.150;8.808;2022-11-15T10:55:26;7.10;;;2.50;;
9042;SDS011;4556;49.150;8.808;2022-11-15T10:57:56;3.90;;;2.90;;
9042;SDS011;4556;49.150;8.808;2022-11-15T11:00:32;3.63;;;2.60;;
9042;SDS011;4556;49.150;8.808;2022-11-15T11:03:02;3.63;;;2.50;;
9042;SDS011;4556;49.150;8.808;2022-11-15T11:05:32;5.33;;;2.90;;
9042;SDS011;4556;49.150;8.808;2022-11-15T11:08:03;3.30;;;2.27;;
9042;SDS011;4556;49.150;8.808;2022-11-15T11:10:31;4.97;;;3.07;;
9042;SDS011;4556;49.150;8.808;2022-11-15T11:13:12;4.20;;;2.80;;
9042;SDS011;4556;49.150;8.808;2022-11-15T11:15:41;4.70;;;3.70;;
9042;SDS011;4556;49.150;8.808;2022-11-15T11:18:15;5.57;;;4.47;;
9042;SDS011;4556;49.150;8.808;2022-11-15T11:20:49;4.33;;;3.20;;
9042;SDS011;4556;49.150;8.808;2022-11-15T11:23:23;5.80;;;2.50;;
9042;SDS011;4556;49.150;8.808;2022-11-15T11:26:06;3.50;;;2.60;;
9042;SDS011;4556;49.150;8.808;2022-11-15T11:28:48;6.50;;;2.83;;
9042;SDS011;4556;49.150;8.808;2022-11-15T11:31:26;4.67;;;2.97;;
9042;SDS011;4556;49.150;8.808;2022-11-15T11:34:02;5.30;;;3.10;;
9042;SDS011;4556;49.150;8.808;2022-11-15T11:36:39;5.87;;;3.27;;
9042;SDS011;4556;49.150;8.808;2022-11-15T11:39:19;6.83;;;2.80;;
9042;SDS011;4556;49.150;8.808;2022-11-15T11:41:55;4.63;;;3.30;;
9042;SDS011;4556;49.150;8.808;2022-11-15T11:44:38;4.90;;;3.83;;
9042;SDS011;4556;49.150;8.808;2022-11-15T11:47:19;5.40;;;3.60;;
9042;SDS011;4556;49.150;8.808;2022-11-15T11:49:50;5.90;;;3.00;;
9042;SDS011;4556;49.150;8.808;2022-11-15T11:52:21;4.47;;;2.67;;
9042;SDS011;4556;49.150;8.808;2022-11-15T11:54:55;5.50;;;2.77;;
9042;SDS011;4556;49.150;8.808;2022-11-15T11:57:31;5.67;;;3.07;;
9042;SDS011;4556;49.150;8.808;2022-11-15T12:00:04;4.03;;;2.53;;
9042;SDS011;4556;49.150;8.808;2022-11-15T12:02:44;8.50;;;2.80;;
9042;SDS011;4556;49.150;8.808;2022-11-15T12:05:17;6.67;;;3.10;;
9042;SDS011;4556;49.150;8.808;2022-11-15T12:07:49;7.80;;;2.83;;
9042;SDS011;4556;49.150;8.808;2022-11-15T12:10:20;7.90;;;2.93;;
9042;SDS011;4556;49.150;8.808;2022-11-15T12:12:54;8.27;;;2.93;;
9042;SDS011;4556;49.150;8.808;2022-11-15T12:15:26;5.60;;;2.77;;
9042;SDS011;4556;49.150;8.808;2022-11-15T12:17:57;10.67;;;5.60;;
9042;SDS011;4556;49.150;8.808;2022-11-15T12:20:27;5.87;;;4.63;;
9042;SDS011;4556;49.150;8.808;2022-11-15T12:22:57;7.93;;;3.80;;
9042;SDS011;4556;49.150;8.808;2022-11-15T12:25:28;5.77;;;3.00;;
9042;SDS011;4556;49.150;8.808;2022-11-15T12:28:00;5.73;;;2.80;;
9042;SDS011;4556;49.150;8.808;2022-11-15T12:30:39;7.37;;;2.57;;
9042;SDS011;4556;49.150;8.808;2022-11-15T12:36:02;5.17;;;2.70;;
9042;SDS011;4556;49.150;8.808;2022-11-15T12:41:19;3.63;;;2.50;;
9042;SDS011;4556;49.150;8.808;2022-11-15T12:43:48;4.03;;;2.67;;
9042;SDS011;4556;49.150;8.808;2022-11-15T12:46:20;6.70;;;2.73;;
9042;SDS011;4556;49.150;8.808;2022-11-15T12:48:52;4.20;;;2.60;;
9042;SDS011;4556;49.150;8.808;2022-11-15T12:51:22;4.53;;;2.50;;
9042;SDS011;4556;49.150;8.808;2022-11-15T12:57:25;4.30;;;2.20;;
9042;SDS011;4556;49.150;8.808;2022-11-15T12:59:59;5.07;;;2.40;;
9042;SDS011;4556;49.150;8.808;2022-11-15T13:02:29;3.53;;;2.53;;
9042;SDS011;4556;49.150;8.808;2022-11-15T13:07:59;4.70;;;2.30;;
9042;SDS011;4556;49.150;8.808;2022-11-15T13:10:30;6.80;;;2.30;;
9042;SDS011;4556;49.150;8.808;2022-11-15T13:12:59;2.97;;;2.10;;
9042;SDS011;4556;49.150;8.808;2022-11-15T13:15:31;4.67;;;2.10;;
9042;SDS011;4556;49.150;8.808;2022-11-15T13:18:31;4.70;;;2.47;;
9042;SDS011;4556;49.150;8.808;2022-11-15T13:21:01;4.17;;;2.53;;
9042;SDS011;4556;49.150;8.808;2022-11-15T13:23:53;3.50;;;2.10;;
9042;SDS011;4556;49.150;8.808;2022-11-15T13:26:21;5.77;;;2.20;;
9042;SDS011;4556;49.150;8.808;2022-11-15T13:28:49;5.47;;;2.30;;
9042;SDS011;4556;49.150;8.808;2022-11-15T13:31:23;5.37;;;2.30;;
9042;SDS011;4556;49.150;8.808;2022-11-15T13:33:57;6.40;;;2.80;;
9042;SDS011;4556;49.150;8.808;2022-11-15T13:36:29;4.93;;;2.30;;
9042;SDS011;4556;49.150;8.808;2022-11-15T13:39:01;7.13;;;2.37;;
9042;SDS011;4556;49.150;8.808;2022-11-15T13:41:31;3.83;;;2.10;;
9042;SDS011;4556;49.150;8.808;2022-11-15T13:43:59;5.47;;;2.40;;
9042;SDS011;4556;49.150;8.808;2022-11-15T13:46:27;3.27;;;2.40;;
9042;SDS011;4556;49.150;8.808;2022-11-15T13:48:58;6.17;;;2.73;;
9042;SDS011;4556;49.150;8.808;2022-11-15T13:51:30;3.37;;;2.17;;
9042;SDS011;4556;49.150;8.808;2022-11-15T13:54:05;9.70;;;2.43;;
9042;SDS011;4556;49.150;8.808;2022-11-15T13:56:41;6.33;;;2.83;;
9042;SDS011;4556;49.150;8.808;2022-11-15T13:59:10;6.27;;;2.37;;
9042;SDS011;4556;49.150;8.808;2022-11-15T14:01:43;4.70;;;2.20;;
9042;SDS011;4556;49.150;8.808;2022-11-15T14:04:11;5.00;;;2.10;;
9042;SDS011;4556;49.150;8.808;2022-11-15T14:06:44;4.57;;;2.37;;
9042;SDS011;4556;49.150;8.808;2022-11-15T14:09:31;3.17;;;2.10;;
9042;SDS011;4556;49.150;8.808;2022-11-15T14:12:00;7.23;;;2.63;;
9042;SDS011;4556;49.150;8.808;2022-11-15T14:14:30;3.57;;;2.20;;
9042;SDS011;4556;49.150;8.808;2022-11-15T14:16:57;4.27;;;2.73;;
9042;SDS011;4556;49.150;8.808;2022-11-15T14:19:36;3.37;;;2.27;;
9042;SDS011;4556;49.150;8.808;2022-11-15T14:22:12;3.63;;;2.40;;
9042;SDS011;4556;49.150;8.808;2022-11-15T14:24:42;4.77;;;2.50;;
9042;SDS011;4556;49.150;8.808;2022-11-15T14:27:17;4.03;;;2.60;;
9042;SDS011;4556;49.150;8.808;2022-11-15T14:29:46;5.40;;;2.33;;
9042;SDS011;4556;49.150;8.808;2022-11-15T14:32:14;5.63;;;2.10;;
9042;SDS011;4556;49.150;8.808;2022-11-15T14:34:43;4.57;;;2.40;;
9042;SDS011;4556;49.150;8.808;2022-11-15T14:37:16;7.93;;;2.93;;
9042;SDS011;4556;49.150;8.808;2022-11-15T14:39:48;3.63;;;2.40;;
9042;SDS011;4556;49.150;8.808;2022-11-15T14:42:16;6.67;;;2.97;;
9042;SDS011;4556;49.150;8.808;2022-11-15T14:44:43;5.90;;;2.90;;
9042;SDS011;4556;49.150;8.808;2022-11-15T14:47:10;5.33;;;3.00;;
9042;SDS011;4556;49.150;8.808;2022-11-15T14:49:37;4.90;;;2.37;;
9042;SDS011;4556;49.150;8.808;2022-11-15T14:52:07;5.07;;;3.00;;
9042;SDS011;4556;49.150;8.808;2022-11-15T14:54:42;5.47;;;2.80;;
9042;SDS011;4556;49.150;8.808;2022-11-15T14:57:11;5.93;;;2.90;;
9042;SDS011;4556;49.150;8.808;2022-11-15T14:59:37;6.67;;;2.70;;
9042;SDS011;4556;49.150;8.808;2022-11-15T15:02:08;6.20;;;2.60;;
9042;SDS011;4556;49.150;8.808;2022-11-15T15:04:40;3.73;;;2.40;;
9042;SDS011;4556;49.150;8.808;2022-11-15T15:07:07;4.30;;;2.97;;
9042;SDS011;4556;49.150;8.808;2022-11-15T15:09:34;4.33;;;2.60;;
9042;SDS011;4556;49.150;8.808;2022-11-15T15:12:01;4.77;;;2.70;;
9042;SDS011;4556;49.150;8.808;2022-11-15T15:14:30;7.37;;;2.80;;
9042;SDS011;4556;49.150;8.808;2022-11-15T15:16:57;3.97;;;3.00;;
9042;SDS011;4556;49.150;8.808;2022-11-15T15:19:24;6.57;;;3.10;;
9042;SDS011;4556;49.150;8.808;2022-11-15T15:21:51;5.23;;;2.63;;
9042;SDS011;4556;49.150;8.808;2022-11-15T15:24:18;6.00;;;2.90;;
9042;SDS011;4556;49.150;8.808;2022-11-15T15:26:45;7.27;;;3.53;;
9042;SDS011;4556;49.150;8.808;2022-11-15T15:29:11;14.00;;;9.40;;
9042;SDS011;4556;49.150;8.808;2022-11-15T15:31:40;18.13;;;11.70;;
9042;SDS011;4556;49.150;8.808;2022-11-15T15:34:07;14.50;;;9.10;;
9042;SDS011;4556;49.150;8.808;2022-11-15T15:36:34;5.47;;;3.87;;
9042;SDS011;4556;49.150;8.808;2022-11-15T15:39:02;8.93;;;4.90;;
9042;SDS011;4556;49.150;8.808;2022-11-15T15:41:28;6.37;;;3.80;;
9042;SDS011;4556;49.150;8.808;2022-11-15T15:43:56;5.53;;;3.83;;
9042;SDS011;4556;49.150;8.808;2022-11-15T15:46:23;5.30;;;3.37;;
9042;SDS011;4556;49.150;8.808;2022-11-15T15:48:52;5.67;;;3.10;;
9042;SDS011;4556;49.150;8.808;2022-11-15T15:51:19;4.93;;;3.30;;
9042;SDS011;4556;49.150;8.808;2022-11-15T15:53:46;7.73;;;5.80;;